createdAt,value
2018-07-20T00:01:10.447Z,2.53
2018-07-20T00:05:04.654Z,2.27
2018-07-20T00:08:58.665Z,2.30
2018-07-20T00:12:52.945Z,2.50
2018-07-20T00:16:47.048Z,2.53
2018-07-20T00:20:40.443Z,2.27
2018-07-20T00:24:34.438Z,2.60
2018-07-20T00:28:28.508Z,2.53
2018-07-20T00:32:22.429Z,2.40
2018-07-20T00:36:16.348Z,2.80
2018-07-20T00:40:10.856Z,2.50
2018-07-20T00:44:04.841Z,2.87
2018-07-20T00:47:58.862Z,2.80
2018-07-20T00:51:52.827Z,2.30
2018-07-20T00:55:46.834Z,2.77
2018-07-20T00:59:40.822Z,2.53
2018-07-20T01:03:34.863Z,2.40
2018-07-20T01:07:28.824Z,2.47
2018-07-20T01:11:22.814Z,2.70
2018-07-20T01:15:16.850Z,2.80
2018-07-20T01:19:11.010Z,2.50
2018-07-20T01:23:05.566Z,2.90
2018-07-20T01:26:58.950Z,2.80
2018-07-20T01:30:52.835Z,2.87
2018-07-20T01:34:47.328Z,3.10
2018-07-20T01:38:41.235Z,3.33
2018-07-20T01:42:35.126Z,3.03
2018-07-20T01:46:29.063Z,3.13
2018-07-20T01:50:22.989Z,3.10
2018-07-20T01:54:16.943Z,3.07
2018-07-20T01:58:10.876Z,3.50
2018-07-20T02:02:04.937Z,2.70
2018-07-20T02:05:59.034Z,3.00
2018-07-20T02:09:53.041Z,2.93
2018-07-20T02:13:47.031Z,2.70
2018-07-20T02:17:40.957Z,3.00
2018-07-20T02:21:34.430Z,3.07
2018-07-20T02:25:28.345Z,3.47
2018-07-20T02:29:22.316Z,3.30
2018-07-20T02:33:16.291Z,3.00
2018-07-20T02:37:10.414Z,3.30
2018-07-20T02:41:04.426Z,3.30
2018-07-20T02:44:58.327Z,3.10
2018-07-20T02:48:52.241Z,3.37
2018-07-20T02:52:46.290Z,4.20
2018-07-20T02:56:40.292Z,3.70
2018-07-20T03:00:34.231Z,3.87
2018-07-20T03:04:28.199Z,3.80
2018-07-20T03:08:22.076Z,3.50
2018-07-20T03:12:16.104Z,3.43
2018-07-20T03:16:10.074Z,3.53
2018-07-20T03:20:03.482Z,3.63
2018-07-20T03:23:57.491Z,3.40
2018-07-20T03:27:51.465Z,3.77
2018-07-20T03:31:45.402Z,3.73
2018-07-20T03:35:39.377Z,3.50
2018-07-20T03:39:33.032Z,3.70
2018-07-20T03:43:26.830Z,3.53
2018-07-20T03:47:20.494Z,3.80
2018-07-20T03:51:14.554Z,3.80
2018-07-20T03:59:31.138Z,4.13
2018-07-20T04:03:25.063Z,3.60
2018-07-20T04:07:19.867Z,3.87
2018-07-20T04:11:13.724Z,3.93
2018-07-20T04:15:07.783Z,4.40
2018-07-20T04:19:01.180Z,4.33
2018-07-20T04:22:55.249Z,4.50
2018-07-20T04:26:49.246Z,4.33
2018-07-20T04:30:43.170Z,4.13
2018-07-20T04:34:37.138Z,4.20
2018-07-20T04:38:31.017Z,4.07
2018-07-20T04:42:25.017Z,4.60
2018-07-20T04:46:18.950Z,4.97
2018-07-20T04:50:12.610Z,3.90
2018-07-20T04:54:06.186Z,4.27
2018-07-20T04:58:00.206Z,4.57
2018-07-20T05:01:54.195Z,4.57
2018-07-20T05:05:48.445Z,4.73
2018-07-20T05:09:42.637Z,4.90
2018-07-20T05:13:37.030Z,4.87
2018-07-20T05:17:30.883Z,5.00
2018-07-20T05:21:24.913Z,4.80
2018-07-20T05:25:18.317Z,5.20
2018-07-20T05:29:12.291Z,5.87
2018-07-20T05:33:06.330Z,5.30
2018-07-20T05:37:00.360Z,5.67
2018-07-20T05:40:54.497Z,5.03
2018-07-20T05:44:48.443Z,5.40
2018-07-20T05:48:43.577Z,4.83
2018-07-20T05:52:37.574Z,5.40
2018-07-20T05:56:31.501Z,4.50
2018-07-20T06:00:25.600Z,6.27
2018-07-20T06:04:19.806Z,5.20
2018-07-20T06:08:13.926Z,4.80
2018-07-20T06:12:08.138Z,5.47
2018-07-20T06:16:02.736Z,4.20
2018-07-20T06:19:57.108Z,3.97
2018-07-20T06:23:51.725Z,3.83
2018-07-20T06:27:46.128Z,4.13
2018-07-20T06:31:43.937Z,4.30
2018-07-20T06:35:39.012Z,4.10
2018-07-20T06:39:33.752Z,4.50
2018-07-20T06:43:28.189Z,3.63
2018-07-20T06:47:22.399Z,3.90
2018-07-20T06:51:16.526Z,3.57
2018-07-20T06:55:11.321Z,3.50
2018-07-20T06:59:05.471Z,2.97
2018-07-20T07:02:59.565Z,3.67
2018-07-20T07:06:54.685Z,3.67
2018-07-20T07:10:48.753Z,3.40
2018-07-20T07:14:43.005Z,4.07
2018-07-20T07:18:36.651Z,3.53
2018-07-20T07:22:31.918Z,3.90
2018-07-20T07:26:29.566Z,3.37
2018-07-20T07:30:25.495Z,4.10
2018-07-20T07:34:22.515Z,4.00
2018-07-20T07:38:16.891Z,3.93
2018-07-20T07:42:12.545Z,3.63
2018-07-20T07:46:07.185Z,3.60
2018-07-20T07:50:01.941Z,3.97
2018-07-20T07:53:56.505Z,4.13
2018-07-20T07:57:52.231Z,3.90
2018-07-20T08:01:46.917Z,3.67
2018-07-20T08:05:41.901Z,4.20
2018-07-20T08:09:36.161Z,4.43
2018-07-20T08:13:30.293Z,4.27
2018-07-20T08:17:24.202Z,4.43
2018-07-20T08:21:18.302Z,4.40
2018-07-20T08:25:11.712Z,4.57
2018-07-20T08:29:05.745Z,4.73
2018-07-20T08:32:59.710Z,5.33
2018-07-20T08:36:53.613Z,5.60
2018-07-20T08:40:47.597Z,5.60
2018-07-20T08:44:41.550Z,4.77
2018-07-20T08:48:37.158Z,5.90
2018-07-20T08:52:31.065Z,4.73
2018-07-20T08:56:25.112Z,5.53
2018-07-20T09:00:19.073Z,5.35
2018-07-20T09:04:12.996Z,5.83
2018-07-20T09:08:07.040Z,7.13
2018-07-20T09:12:00.999Z,5.85
2018-07-20T09:15:55.059Z,5.80
2018-07-20T09:19:49.022Z,5.40
2018-07-20T09:23:42.506Z,6.45
2018-07-20T09:27:36.546Z,5.87
2018-07-20T09:31:30.539Z,5.23
2018-07-20T09:35:24.586Z,5.27
2018-07-20T09:39:18.784Z,6.87
2018-07-20T09:43:12.911Z,6.22
2018-07-20T09:47:06.993Z,7.15
2018-07-20T09:51:00.975Z,6.35
2018-07-20T09:54:54.971Z,6.75
2018-07-20T09:58:48.971Z,5.92
2018-07-20T10:02:42.987Z,7.42
2018-07-20T10:06:37.516Z,8.40
2018-07-20T10:10:31.496Z,10.75
2018-07-20T10:14:25.743Z,7.67
2018-07-20T10:18:19.984Z,7.03
2018-07-20T10:22:14.243Z,7.85
2018-07-20T10:26:08.398Z,6.50
2018-07-20T10:30:02.005Z,6.40
2018-07-20T10:33:57.386Z,6.62
2018-07-20T10:37:51.643Z,7.92
2018-07-20T10:41:45.683Z,8.03
2018-07-20T10:45:39.639Z,7.80
2018-07-20T10:49:33.799Z,9.13
2018-07-20T10:53:28.539Z,7.70
2018-07-20T10:57:22.903Z,7.60
2018-07-20T11:01:17.712Z,6.53
2018-07-20T11:05:11.720Z,7.72
2018-07-20T11:09:07.550Z,7.20
2018-07-20T11:13:01.487Z,7.05
2018-07-20T11:16:55.408Z,6.20
2018-07-20T11:20:48.896Z,6.70
2018-07-20T11:24:42.834Z,6.87
2018-07-20T11:28:36.792Z,7.03
2018-07-20T11:32:30.748Z,7.47
2018-07-20T11:36:24.822Z,6.53
2018-07-20T11:40:18.924Z,8.15
2018-07-20T11:44:12.931Z,6.42
2018-07-20T11:48:08.156Z,6.53
2018-07-20T11:52:02.169Z,7.75
2018-07-20T11:55:56.178Z,7.15
2018-07-20T11:59:50.142Z,6.30
2018-07-20T12:03:44.278Z,8.05
2018-07-20T12:07:38.280Z,6.62
2018-07-20T12:11:32.395Z,6.60
2018-07-20T12:15:26.349Z,7.22
2018-07-20T12:19:20.191Z,6.33
2018-07-20T12:23:15.411Z,6.17
2018-07-20T12:27:09.802Z,5.22
2018-07-20T12:31:03.889Z,6.35
2018-07-20T12:34:58.254Z,5.62
2018-07-20T12:38:53.123Z,5.05
2018-07-20T12:42:47.193Z,5.80
2018-07-20T12:46:41.275Z,6.47
2018-07-20T12:50:36.164Z,5.00
2018-07-20T12:54:30.141Z,5.00
2018-07-20T12:58:24.205Z,5.12
2018-07-20T13:02:17.850Z,5.70
2018-07-20T13:06:11.788Z,6.42
2018-07-20T13:10:06.094Z,4.95
2018-07-20T13:14:00.120Z,5.15
2018-07-20T13:17:54.084Z,4.90
2018-07-20T13:21:47.472Z,4.72
2018-07-20T13:25:41.414Z,5.72
2018-07-20T13:29:35.620Z,5.08
2018-07-20T13:33:29.678Z,5.28
2018-07-20T13:37:23.736Z,4.58
2018-07-20T13:41:17.787Z,5.37
2018-07-20T13:45:11.805Z,4.37
2018-07-20T13:49:06.109Z,4.30
2018-07-20T13:53:00.081Z,4.70
2018-07-20T13:56:53.999Z,3.98
2018-07-20T14:00:48.936Z,5.10
2018-07-20T14:04:45.056Z,4.70
2018-07-20T14:08:40.794Z,4.40
2018-07-20T14:12:34.877Z,4.00
2018-07-20T14:16:28.886Z,5.87
2018-07-20T14:20:22.345Z,3.90
2018-07-20T14:24:16.120Z,4.72
2018-07-20T14:28:10.171Z,4.45
2018-07-20T14:32:04.200Z,3.85
2018-07-20T14:39:56.466Z,3.77
2018-07-20T14:43:51.323Z,3.77
2018-07-20T14:47:45.390Z,3.60
2018-07-20T14:51:39.536Z,5.03
2018-07-20T14:55:33.734Z,4.58
2018-07-20T14:59:27.704Z,6.70
2018-07-20T15:03:21.786Z,4.58
2018-07-20T15:07:16.455Z,3.87
2018-07-20T15:11:10.650Z,3.62
2018-07-20T15:15:05.225Z,3.70
2018-07-20T15:18:59.633Z,4.17
2018-07-20T15:22:53.362Z,4.17
2018-07-20T15:26:46.214Z,3.77
2018-07-20T15:30:39.897Z,4.15
2018-07-20T15:34:33.727Z,3.70
2018-07-20T15:38:27.815Z,3.50
2018-07-20T15:42:21.847Z,3.90
2018-07-20T15:46:15.875Z,4.30
2018-07-20T15:50:09.815Z,5.60
2018-07-20T15:54:03.820Z,5.60
2018-07-20T15:57:57.782Z,4.33
2018-07-20T16:01:51.746Z,2.95
2018-07-20T16:05:45.738Z,3.67
2018-07-20T16:09:40.058Z,4.05
2018-07-20T16:13:34.008Z,3.60
2018-07-20T16:17:28.084Z,3.70
2018-07-20T16:21:21.826Z,3.42
2018-07-20T16:25:15.941Z,3.30
2018-07-20T16:29:10.024Z,4.20
2018-07-20T16:33:04.280Z,4.33
2018-07-20T16:36:58.933Z,3.95
2018-07-20T16:40:53.759Z,5.37
2018-07-20T16:44:47.888Z,13.10
2018-07-20T16:48:43.021Z,4.33
2018-07-20T16:52:37.762Z,4.45
2018-07-20T16:56:31.881Z,5.03
2018-07-20T17:00:25.843Z,4.97
2018-07-20T17:04:19.589Z,5.03
2018-07-20T17:08:13.524Z,5.10
2018-07-20T17:12:08.022Z,4.40
2018-07-20T17:16:02.092Z,4.75
2018-07-20T17:19:55.604Z,5.62
2018-07-20T17:23:49.649Z,5.30
2018-07-20T17:27:44.168Z,4.70
2018-07-20T17:31:38.227Z,5.10
2018-07-20T17:35:32.437Z,4.80
2018-07-20T17:39:26.619Z,5.77
2018-07-20T17:43:20.714Z,5.28
2018-07-20T17:47:14.739Z,4.67
2018-07-20T17:51:09.112Z,5.78
2018-07-20T17:55:03.484Z,5.00
2018-07-20T17:58:58.029Z,5.28
2018-07-20T18:02:52.167Z,4.90
2018-07-20T18:06:46.323Z,5.92
2018-07-20T18:10:40.569Z,4.95
2018-07-20T18:14:34.484Z,5.40
2018-07-20T18:18:29.511Z,5.70
2018-07-20T18:22:22.994Z,4.45
2018-07-20T18:26:17.025Z,5.22
2018-07-20T18:30:11.145Z,5.15
2018-07-20T18:34:05.164Z,5.37
2018-07-20T18:37:58.868Z,4.87
2018-07-20T18:41:52.786Z,5.20
2018-07-20T18:45:46.438Z,4.22
2018-07-20T18:49:40.402Z,4.53
2018-07-20T18:53:34.566Z,4.20
2018-07-20T18:57:28.661Z,4.40
2018-07-20T19:01:22.641Z,4.08
2018-07-20T19:05:17.212Z,4.90
2018-07-20T19:09:11.988Z,4.10
2018-07-20T19:13:06.033Z,4.25
2018-07-20T19:17:00.167Z,4.08
2018-07-20T19:20:53.524Z,4.12
2018-07-20T19:24:47.542Z,4.67
2018-07-20T19:28:41.592Z,3.47
2018-07-20T19:32:35.585Z,3.57
2018-07-20T19:36:29.450Z,3.42
2018-07-20T19:40:23.481Z,5.03
2018-07-20T19:44:17.360Z,4.05
2018-07-20T19:48:11.292Z,3.77
2018-07-20T19:52:05.301Z,4.20
2018-07-20T19:55:59.221Z,4.55
2018-07-20T19:59:53.227Z,3.75
2018-07-20T20:03:47.222Z,4.07
2018-07-20T20:07:41.150Z,3.70
2018-07-20T20:11:35.112Z,3.37
2018-07-20T20:15:29.078Z,3.40
2018-07-20T20:19:22.466Z,3.50
2018-07-20T20:23:16.376Z,3.42
2018-07-20T20:27:10.303Z,3.60
2018-07-20T20:31:04.349Z,3.53
2018-07-20T20:34:58.281Z,3.50
2018-07-20T20:38:52.239Z,3.70
2018-07-20T20:42:46.144Z,3.23
2018-07-20T20:46:40.558Z,3.80
2018-07-20T20:50:34.579Z,3.95
2018-07-20T20:54:28.499Z,4.20
2018-07-20T20:58:23.162Z,4.40
2018-07-20T21:02:17.086Z,4.17
2018-07-20T21:06:11.044Z,4.90
2018-07-20T21:10:05.435Z,4.27
2018-07-20T21:13:59.331Z,4.53
2018-07-20T21:17:53.294Z,4.80
2018-07-20T21:21:47.250Z,5.17
2018-07-20T21:25:41.290Z,4.57
2018-07-20T21:29:34.647Z,4.62
2018-07-20T21:33:28.530Z,5.40
2018-07-20T21:37:22.444Z,5.90
2018-07-20T21:41:16.479Z,4.27
2018-07-20T21:45:10.510Z,4.53
2018-07-20T21:49:04.523Z,4.90
2018-07-20T21:52:58.487Z,4.73
2018-07-20T21:56:52.419Z,4.73
2018-07-20T22:00:46.338Z,4.43
2018-07-20T22:04:40.385Z,4.10
2018-07-20T22:08:34.287Z,4.53
2018-07-20T22:12:29.127Z,5.00
2018-07-20T22:16:23.077Z,4.80
2018-07-20T22:20:16.493Z,4.27
2018-07-20T22:24:10.368Z,4.30
2018-07-20T22:28:04.299Z,4.57
2018-07-20T22:31:58.208Z,4.43
2018-07-20T22:35:52.118Z,4.67
2018-07-20T22:39:46.077Z,4.28
2018-07-20T22:43:39.967Z,4.90
2018-07-20T22:47:33.865Z,4.73
2018-07-20T22:51:28.711Z,4.90
2018-07-20T22:55:22.635Z,4.37
2018-07-20T22:59:16.566Z,4.70
2018-07-20T23:03:10.438Z,3.93
2018-07-20T23:07:04.322Z,5.20
2018-07-20T23:10:58.309Z,5.50
2018-07-20T23:14:52.263Z,5.47
2018-07-20T23:18:46.230Z,4.85
2018-07-20T23:22:39.751Z,4.90
2018-07-20T23:26:33.650Z,5.07
2018-07-20T23:30:27.543Z,5.17
2018-07-20T23:34:21.470Z,4.90
2018-07-20T23:38:15.358Z,5.13
2018-07-20T23:42:09.266Z,4.87
2018-07-20T23:46:03.150Z,4.97
2018-07-20T23:49:56.745Z,8.13
2018-07-20T23:53:50.540Z,7.20
2018-07-20T23:57:44.738Z,7.83
